Muscat International Airport

Airport
ICAO code: 
OOMS
IATA Code: 
MCT
Summary
ICAO Region: 
MID
Territory: 
Location: 
Seeb, Muscat
Serving: 
Muscat
Coordinates: 
Aerial View: 
23° 35' 36" N, 58° 16' 54" E
Metar
Observation
OOMS 281150Z 05005KT CAVOK 26/14 Q1015 NOSIG
Station
Seeb, International Airport
Date/Time
2022-01-28 11:50:00
Wind direction
50°
Wind speed
05 kts
Lowest cloud amount
clouds and visibility OK
Temperature
26°C
Dew point
14°C
Humidity
47%
QNH
1015 hPa
Weather condition
n/a

International airport serving Muscat, the capital of Oman.

Climatology

Hot Desert Climate (Köppen climate classification BWh)

Runways

Designator Length Width Surface Rops
2/20 750 30 GRE Yes/Yes
8/26 3589 45 ASP Yes/Yes
Airport map: 
Aerial View: 

Accidents and Serious Incidents at or in the vicinity of OOMS

SKYbrary Partners:

Safety knowledge contributed by: